Time;durP1;ratioP1;P1;durP2;ratioP2;P2;SDS_P1;SDS_P2;PMS_P1;PMS_P2;Temp;Humidity;BMP_temperature;BMP_pressure;BME280_temperature;BME280_humidity;BME280_pressure;Samples;Min_cycle;Max_cycle;Signal;HPM_P1;HPM_P2
2023/06/06 00:00:32;;;;;;;8.20;3.90;;;;;;;;;;107165;1251;23428;-86
2023/06/06 00:03:21;;;;;;;7.50;4.00;;;;;;;;;;107020;1275;25261;-82
2023/06/06 00:05:50;;;;;;;7.80;4.10;;;;;;;;;;106957;1274;24237;-82
2023/06/06 00:08:20;;;;;;;7.40;4.00;;;;;;;;;;106960;1253;22641;-88
2023/06/06 00:11:02;;;;;;;9.20;4.00;;;;;;;;;;106957;1251;25234;-87
2023/06/06 00:13:32;;;;;;;8.50;4.30;;;;;;;;;;107183;1274;22509;-85
2023/06/06 00:15:58;;;;;;;8.40;3.90;;;;;;;;;;107181;1274;22612;-85
2023/06/06 00:18:27;;;;;;;9.20;4.20;;;;;;;;;;107198;1274;25398;-84
2023/06/06 00:20:54;;;;;;;8.20;4.10;;;;;;;;;;107185;1274;22563;-81
2023/06/06 00:23:21;;;;;;;8.60;4.70;;;;;;;;;;106975;1274;25569;-84
2023/06/06 00:25:51;;;;;;;9.00;4.50;;;;;;;;;;106970;1274;25438;-84
2023/06/06 00:28:20;;;;;;;8.10;4.50;;;;;;;;;;106956;1274;25237;-86
2023/06/06 00:30:47;;;;;;;8.60;4.60;;;;;;;;;;107231;1274;22524;-83
2023/06/06 00:33:38;;;;;;;8.70;4.60;;;;;;;;;;106978;1258;24370;-83
2023/06/06 00:36:34;;;;;;;8.80;4.20;;;;;;;;;;107246;1274;25319;-83
2023/06/06 00:39:21;;;;;;;8.80;4.60;;;;;;;;;;107186;1274;22624;-83
2023/06/06 00:41:48;;;;;;;9.20;4.70;;;;;;;;;;107214;1251;22541;-89
2023/06/06 00:44:19;;;;;;;9.10;4.60;;;;;;;;;;106981;1274;22580;-86
2023/06/06 00:46:46;;;;;;;8.70;4.40;;;;;;;;;;107005;1275;25479;-88
2023/06/06 00:49:21;;;;;;;7.70;4.20;;;;;;;;;;107093;1274;22518;-86
2023/06/06 00:52:17;;;;;;;10.50;4.80;;;;;;;;;;107205;1251;25293;-87
2023/06/06 00:54:57;;;;;;;8.90;4.70;;;;;;;;;;107157;1274;25723;-84
2023/06/06 00:57:41;;;;;;;9.50;5.10;;;;;;;;;;107229;1274;25453;-87
2023/06/06 01:00:18;;;;;;;10.00;5.20;;;;;;;;;;107129;1274;25341;-86
2023/06/06 01:02:52;;;;;;;9.40;5.30;;;;;;;;;;107066;1251;22612;-89
2023/06/06 01:05:41;;;;;;;10.30;5.70;;;;;;;;;;107136;1274;22481;-83
2023/06/06 01:08:08;;;;;;;12.00;5.90;;;;;;;;;;107178;1274;25261;-89
2023/06/06 01:10:42;;;;;;;10.70;6.10;;;;;;;;;;107205;1274;24247;-83
2023/06/06 01:13:45;;;;;;;;;;;;;;;;;;;;;
2023/06/06 01:16:15;;;;;;;10.90;5.50;;;;;;;;;;107205;1274;22524;-86
2023/06/06 01:18:56;;;;;;;11.10;5.90;;;;;;;;;;106987;1274;22566;-86
2023/06/06 01:21:25;;;;;;;10.60;6.10;;;;;;;;;;107126;1274;22785;-83
2023/06/06 01:23:53;;;;;;;9.90;5.60;;;;;;;;;;107011;1257;24331;-86
2023/06/06 01:26:19;;;;;;;10.80;5.90;;;;;;;;;;107152;1274;22523;-82
2023/06/06 01:28:58;;;;;;;12.10;6.30;;;;;;;;;;107161;1274;25328;-87
2023/06/06 01:31:39;;;;;;;13.00;6.30;;;;;;;;;;106943;1274;22484;-84
2023/06/06 01:34:13;;;;;;;12.50;6.40;;;;;;;;;;107115;1273;25221;-82
2023/06/06 01:37:08;;;;;;;11.90;5.40;;;;;;;;;;107171;1274;25336;-83
2023/06/06 01:39:38;;;;;;;9.90;5.60;;;;;;;;;;107199;1274;25459;-82
2023/06/06 01:42:06;;;;;;;10.80;5.40;;;;;;;;;;106996;1274;24221;-85
2023/06/06 01:44:40;;;;;;;9.10;5.40;;;;;;;;;;107044;1257;22521;-88
2023/06/06 01:47:07;;;;;;;10.60;5.30;;;;;;;;;;107185;1273;24193;-85
2023/06/06 01:49:35;;;;;;;11.50;5.60;;;;;;;;;;107161;1273;22589;-85
2023/06/06 01:52:02;;;;;;;10.50;5.80;;;;;;;;;;107158;1265;24365;-83
2023/06/06 01:54:34;;;;;;;12.40;6.10;;;;;;;;;;106965;1264;22547;-82
2023/06/06 01:57:02;;;;;;;9.10;5.60;;;;;;;;;;107153;1273;26449;-85
2023/06/06 01:59:29;;;;;;;8.80;5.20;;;;;;;;;;107160;1269;22529;-85
2023/06/06 02:01:58;;;;;;;9.90;5.00;;;;;;;;;;107170;1273;25466;-88
2023/06/06 02:04:27;;;;;;;9.90;5.30;;;;;;;;;;107179;1256;22532;-88
2023/06/06 02:06:56;;;;;;;9.40;5.60;;;;;;;;;;107208;1272;25310;-88
2023/06/06 02:09:23;;;;;;;10.80;5.60;;;;;;;;;;107198;1273;22517;-84
2023/06/06 02:11:49;;;;;;;10.60;5.60;;;;;;;;;;107214;1272;25325;-80
2023/06/06 02:14:16;;;;;;;8.70;5.20;;;;;;;;;;107121;1257;26471;-86
2023/06/06 02:16:45;;;;;;;10.30;5.70;;;;;;;;;;107245;1273;22517;-85
2023/06/06 02:19:12;;;;;;;9.40;5.50;;;;;;;;;;107168;1272;24252;-83
2023/06/06 02:21:39;;;;;;;9.30;5.00;;;;;;;;;;107148;1273;25351;-82
2023/06/06 02:24:08;;;;;;;9.00;5.00;;;;;;;;;;107143;1273;24196;-87
2023/06/06 02:26:47;;;;;;;8.40;4.80;;;;;;;;;;107157;1273;22534;-82
2023/06/06 02:29:14;;;;;;;10.00;5.10;;;;;;;;;;107164;1273;22520;-82
2023/06/06 02:31:45;;;;;;;8.80;5.30;;;;;;;;;;107133;1273;22527;-83
2023/06/06 02:34:12;;;;;;;10.10;5.20;;;;;;;;;;107159;1258;25319;-83
2023/06/06 02:36:41;;;;;;;9.80;5.80;;;;;;;;;;107271;1272;22520;-81
2023/06/06 02:39:08;;;;;;;9.60;5.30;;;;;;;;;;107189;1272;25613;-87
2023/06/06 02:41:44;;;;;;;10.60;5.30;;;;;;;;;;107238;1272;24257;-86
2023/06/06 02:44:11;;;;;;;10.10;5.10;;;;;;;;;;107130;1254;22621;-80
2023/06/06 02:46:37;;;;;;;10.70;5.30;;;;;;;;;;107148;1273;22478;-87
2023/06/06 02:49:06;;;;;;;9.80;4.90;;;;;;;;;;107178;1273;25312;-84
2023/06/06 02:51:35;;;;;;;11.50;6.30;;;;;;;;;;107071;1273;22527;-84
2023/06/06 02:54:05;;;;;;;9.90;5.80;;;;;;;;;;107189;1257;25220;-82
2023/06/06 02:56:35;;;;;;;11.00;6.20;;;;;;;;;;107064;1273;25265;-84
2023/06/06 02:59:07;;;;;;;12.70;7.60;;;;;;;;;;107235;1263;22892;-85
2023/06/06 03:01:36;;;;;;;13.30;7.30;;;;;;;;;;107184;1273;22726;-82
2023/06/06 03:04:03;;;;;;;15.20;7.20;;;;;;;;;;107026;1273;24210;-79
2023/06/06 03:06:30;;;;;;;14.60;6.70;;;;;;;;;;107125;1258;25217;-82
2023/06/06 03:08:57;;;;;;;11.00;7.00;;;;;;;;;;107244;1272;25337;-84
2023/06/06 03:11:30;;;;;;;13.30;7.30;;;;;;;;;;107342;1269;25430;-85
2023/06/06 03:13:58;;;;;;;13.90;7.90;;;;;;;;;;107280;1272;25532;-87
2023/06/06 03:16:28;;;;;;;12.20;7.20;;;;;;;;;;107157;1273;22634;-85
2023/06/06 03:18:57;;;;;;;13.30;7.40;;;;;;;;;;107026;1273;22534;-88
2023/06/06 03:21:24;;;;;;;11.40;7.50;;;;;;;;;;107196;1273;24382;-80
2023/06/06 03:23:55;;;;;;;10.90;7.50;;;;;;;;;;107084;1273;22577;-83
2023/06/06 03:26:26;;;;;;;11.70;6.70;;;;;;;;;;107197;1256;25223;-80
2023/06/06 03:28:56;;;;;;;11.00;7.00;;;;;;;;;;107237;1273;24219;-84
2023/06/06 03:31:29;;;;;;;10.60;6.20;;;;;;;;;;107273;1273;22521;-84
2023/06/06 03:33:56;;;;;;;11.50;7.10;;;;;;;;;;107224;1273;25307;-84
2023/06/06 03:36:33;;;;;;;11.50;6.80;;;;;;;;;;107188;1273;24303;-84
2023/06/06 03:39:00;;;;;;;10.40;6.60;;;;;;;;;;107167;1273;24356;-82
2023/06/06 03:41:27;;;;;;;12.30;7.30;;;;;;;;;;107171;1273;22528;-85
2023/06/06 03:43:54;;;;;;;12.40;7.20;;;;;;;;;;107159;1273;22534;-84
2023/06/06 03:46:21;;;;;;;15.30;8.40;;;;;;;;;;107039;1258;22533;-80
2023/06/06 03:48:49;;;;;;;13.00;8.70;;;;;;;;;;107211;1273;24232;-79
2023/06/06 03:51:18;;;;;;;18.50;9.10;;;;;;;;;;107131;1271;22566;-87
2023/06/06 03:53:45;;;;;;;14.40;7.80;;;;;;;;;;107215;1273;22523;-83
2023/06/06 03:56:16;;;;;;;12.50;8.00;;;;;;;;;;107240;1254;25226;-80
2023/06/06 03:58:47;;;;;;;14.50;8.60;;;;;;;;;;106983;1274;22543;-82
2023/06/06 04:01:14;;;;;;;13.20;8.80;;;;;;;;;;107100;1274;24243;-81
2023/06/06 04:03:42;;;;;;;11.90;7.50;;;;;;;;;;107192;1275;25275;-80
2023/06/06 04:06:20;;;;;;;14.00;9.10;;;;;;;;;;107121;1257;23209;-80
2023/06/06 04:09:00;;;;;;;13.30;8.10;;;;;;;;;;107135;1274;24361;-84
2023/06/06 04:11:33;;;;;;;12.60;8.30;;;;;;;;;;107157;1274;22523;-84
2023/06/06 04:14:00;;;;;;;14.90;8.00;;;;;;;;;;107173;1274;22530;-81
2023/06/06 04:16:40;;;;;;;13.00;7.60;;;;;;;;;;107063;1257;22520;-84
2023/06/06 04:19:07;;;;;;;11.40;7.10;;;;;;;;;;107075;1274;25278;-83
2023/06/06 04:21:37;;;;;;;10.50;6.30;;;;;;;;;;106921;1274;22521;-78
2023/06/06 04:24:07;;;;;;;11.00;6.40;;;;;;;;;;106968;1274;22524;-79
2023/06/06 04:26:34;;;;;;;11.30;6.30;;;;;;;;;;107120;1274;22518;-82
2023/06/06 04:29:02;;;;;;;11.20;6.60;;;;;;;;;;106927;1274;22776;-82
2023/06/06 04:31:35;;;;;;;12.10;6.90;;;;;;;;;;107134;1274;22520;-79
2023/06/06 04:34:03;;;;;;;9.50;5.90;;;;;;;;;;107113;1274;22540;-80
2023/06/06 04:36:33;;;;;;;10.20;5.60;;;;;;;;;;107168;1256;23923;-81
2023/06/06 04:39:02;;;;;;;10.60;5.00;;;;;;;;;;107133;1274;24228;-79
2023/06/06 04:41:31;;;;;;;9.00;5.00;;;;;;;;;;107158;1274;24187;-81
2023/06/06 04:43:59;;;;;;;11.40;6.00;;;;;;;;;;107182;1274;26526;-84
2023/06/06 04:46:28;;;;;;;9.70;5.30;;;;;;;;;;106925;1251;24298;-82
2023/06/06 04:49:19;;;;;;;10.40;6.00;;;;;;;;;;107120;1274;24318;-82
2023/06/06 04:51:45;;;;;;;12.30;6.10;;;;;;;;;;107144;1274;22517;-79
2023/06/06 04:54:13;;;;;;;11.70;6.00;;;;;;;;;;107065;1273;22517;-80
2023/06/06 04:56:47;;;;;;;10.00;5.80;;;;;;;;;;107216;1251;24253;-84
2023/06/06 04:59:27;;;;;;;10.80;5.00;;;;;;;;;;107176;1274;24492;-82
2023/06/06 05:02:07;;;;;;;;;;;;;;;;;;;;;
2023/06/06 05:04:37;;;;;;;10.90;5.00;;;;;;;;;;107124;1275;22522;-79
2023/06/06 05:07:08;;;;;;;9.30;5.10;;;;;;;;;;107025;1256;22542;-86
2023/06/06 05:09:48;;;;;;;9.60;5.30;;;;;;;;;;106981;1275;22516;-84
2023/06/06 05:12:26;;;;;;;8.40;4.60;;;;;;;;;;107038;1275;22538;-84
2023/06/06 05:14:53;;;;;;;10.90;5.30;;;;;;;;;;106945;1275;24284;-84
2023/06/06 05:17:44;;;;;;;9.60;5.30;;;;;;;;;;106953;1269;22596;-82
2023/06/06 05:20:13;;;;;;;11.00;4.30;;;;;;;;;;107167;1275;25307;-83
2023/06/06 05:22:42;;;;;;;7.40;4.20;;;;;;;;;;107140;1275;22549;-85
2023/06/06 05:25:11;;;;;;;9.70;4.60;;;;;;;;;;107100;1275;25424;-85
2023/06/06 05:27:37;;;;;;;9.20;4.80;;;;;;;;;;106993;1258;24189;-82
2023/06/06 05:30:05;;;;;;;8.60;5.00;;;;;;;;;;106998;1275;22524;-81
2023/06/06 05:32:31;;;;;;;9.80;5.30;;;;;;;;;;107124;1265;24313;-80
2023/06/06 05:35:01;;;;;;;9.30;5.10;;;;;;;;;;106958;1275;22557;-80
2023/06/06 05:37:28;;;;;;;10.70;4.70;;;;;;;;;;106997;1253;22741;-84
2023/06/06 05:39:55;;;;;;;9.20;4.60;;;;;;;;;;107108;1275;24180;-83
2023/06/06 05:42:22;;;;;;;11.10;4.90;;;;;;;;;;106994;1275;22505;-82
2023/06/06 05:44:50;;;;;;;11.00;4.90;;;;;;;;;;106979;1275;22613;-86
2023/06/06 05:47:17;;;;;;;12.30;5.70;;;;;;;;;;107155;1253;22519;-78
2023/06/06 05:49:47;;;;;;;13.20;6.00;;;;;;;;;;106982;1259;25503;-84
2023/06/06 05:52:17;;;;;;;11.00;6.00;;;;;;;;;;107162;1275;24563;-80
2023/06/06 05:54:44;;;;;;;10.20;5.80;;;;;;;;;;106963;1275;24455;-82
2023/06/06 05:57:21;;;;;;;9.50;5.30;;;;;;;;;;106976;1274;22517;-87
2023/06/06 05:59:51;;;;;;;9.70;5.10;;;;;;;;;;107177;1256;22532;-85
2023/06/06 06:02:20;;;;;;;10.40;5.60;;;;;;;;;;106969;1264;22517;-84
2023/06/06 06:04:52;;;;;;;10.70;5.60;;;;;;;;;;107069;1274;22523;-84
2023/06/06 06:07:28;;;;;;;11.00;6.10;;;;;;;;;;106916;1274;22992;-82
2023/06/06 06:10:06;;;;;;;10.20;6.20;;;;;;;;;;106979;1257;24323;-80
2023/06/06 06:12:35;;;;;;;12.80;6.50;;;;;;;;;;106813;1275;22993;-81
2023/06/06 06:15:02;;;;;;;11.50;5.90;;;;;;;;;;106766;1272;22592;-79
2023/06/06 06:17:29;;;;;;;11.80;6.70;;;;;;;;;;107119;1275;22525;-84
2023/06/06 06:19:57;;;;;;;13.10;7.50;;;;;;;;;;106944;1262;26478;-78
2023/06/06 06:22:26;;;;;;;14.30;6.50;;;;;;;;;;107175;1274;22522;-81
2023/06/06 06:24:53;;;;;;;10.80;6.50;;;;;;;;;;107198;1274;22631;-81
2023/06/06 06:27:20;;;;;;;11.50;6.40;;;;;;;;;;107197;1274;22773;-81
2023/06/06 06:29:50;;;;;;;10.60;6.30;;;;;;;;;;106927;1259;25652;-85
2023/06/06 06:32:23;;;;;;;12.50;6.00;;;;;;;;;;106986;1275;23009;-80
2023/06/06 06:34:52;;;;;;;12.30;6.20;;;;;;;;;;107208;1275;25271;-81
2023/06/06 06:37:19;;;;;;;12.40;6.00;;;;;;;;;;107061;1252;25544;-81
2023/06/06 06:39:49;;;;;;;11.90;6.80;;;;;;;;;;107121;1257;25338;-80
2023/06/06 06:42:16;;;;;;;11.50;7.20;;;;;;;;;;107148;1274;23784;-86
2023/06/06 06:44:49;;;;;;;14.10;6.10;;;;;;;;;;107198;1274;22621;-84
2023/06/06 06:47:17;;;;;;;10.80;6.00;;;;;;;;;;107181;1274;25244;-79
2023/06/06 06:49:44;;;;;;;11.20;6.70;;;;;;;;;;107144;1257;26474;-80
2023/06/06 06:52:11;;;;;;;12.70;7.00;;;;;;;;;;107297;1274;22529;-82
2023/06/06 06:54:44;;;;;;;14.60;6.70;;;;;;;;;;107190;1274;22520;-82
2023/06/06 06:57:11;;;;;;;12.20;6.80;;;;;;;;;;107196;1274;22515;-86
2023/06/06 06:59:38;;;;;;;10.80;6.60;;;;;;;;;;107127;1252;22520;-82
2023/06/06 07:02:05;;;;;;;9.90;6.10;;;;;;;;;;106917;1274;22540;-83
2023/06/06 07:04:32;;;;;;;13.20;6.00;;;;;;;;;;106935;1274;25268;-78
2023/06/06 07:06:59;;;;;;;10.60;6.00;;;;;;;;;;107084;1274;22517;-83
2023/06/06 07:09:26;;;;;;;10.80;6.10;;;;;;;;;;107178;1265;22458;-80
2023/06/06 07:11:53;;;;;;;12.00;6.10;;;;;;;;;;107213;1274;24636;-80
2023/06/06 07:14:20;;;;;;;12.00;6.50;;;;;;;;;;107187;1274;25360;-83
2023/06/06 07:16:48;;;;;;;9.80;6.30;;;;;;;;;;107019;1274;22520;-82
2023/06/06 07:19:15;;;;;;;11.70;6.50;;;;;;;;;;107148;1250;24357;-78
2023/06/06 07:21:41;;;;;;;13.60;6.80;;;;;;;;;;106983;1274;24534;-82
2023/06/06 07:24:08;;;;;;;12.60;6.60;;;;;;;;;;106991;1274;24253;-84
2023/06/06 07:26:35;;;;;;;10.00;6.20;;;;;;;;;;107117;1274;22517;-80
2023/06/06 07:29:05;;;;;;;11.00;5.70;;;;;;;;;;107102;1274;22654;-80
2023/06/06 07:31:33;;;;;;;12.80;6.70;;;;;;;;;;107145;1274;25395;-81
2023/06/06 07:34:00;;;;;;;12.90;6.50;;;;;;;;;;107252;1274;25325;-82
2023/06/06 07:36:29;;;;;;;12.40;6.90;;;;;;;;;;107244;1274;25452;-81
2023/06/06 07:38:57;;;;;;;10.40;6.20;;;;;;;;;;107077;1274;22528;-81
2023/06/06 07:41:29;;;;;;;11.50;6.50;;;;;;;;;;107155;1256;22508;-77
2023/06/06 07:43:59;;;;;;;10.30;6.30;;;;;;;;;;107027;1274;24816;-80
2023/06/06 07:46:29;;;;;;;11.00;6.10;;;;;;;;;;107008;1274;22593;-80
2023/06/06 07:48:55;;;;;;;10.80;5.50;;;;;;;;;;107281;1274;23100;-81
2023/06/06 07:51:22;;;;;;;10.30;5.50;;;;;;;;;;107101;1272;22570;-78
2023/06/06 07:53:49;;;;;;;11.80;6.30;;;;;;;;;;107123;1274;22520;-86
2023/06/06 07:56:20;;;;;;;10.70;5.80;;;;;;;;;;107004;1274;24275;-84
2023/06/06 07:58:52;;;;;;;10.20;5.70;;;;;;;;;;107177;1253;22623;-83
2023/06/06 08:01:21;;;;;;;10.80;6.40;;;;;;;;;;107204;1256;25443;-80
2023/06/06 08:03:50;;;;;;;11.00;6.20;;;;;;;;;;107131;1274;22531;-86
2023/06/06 08:06:17;;;;;;;10.80;6.10;;;;;;;;;;107171;1274;24367;-82
2023/06/06 08:08:48;;;;;;;11.40;6.90;;;;;;;;;;107214;1274;22901;-78
2023/06/06 08:11:26;;;;;;;9.90;5.40;;;;;;;;;;107130;1256;25580;-80
2023/06/06 08:13:52;;;;;;;11.00;6.10;;;;;;;;;;107173;1274;22517;-81
2023/06/06 08:16:19;;;;;;;10.70;6.30;;;;;;;;;;107001;1274;24209;-78
2023/06/06 08:18:46;;;;;;;11.40;6.30;;;;;;;;;;106985;1274;25274;-81
2023/06/06 08:21:13;;;;;;;13.00;6.40;;;;;;;;;;106902;1274;22758;-79
2023/06/06 08:23:40;;;;;;;9.40;5.90;;;;;;;;;;107173;1274;25335;-77
2023/06/06 08:26:07;;;;;;;11.30;6.40;;;;;;;;;;107201;1274;22535;-82
2023/06/06 08:28:36;;;;;;;11.10;6.00;;;;;;;;;;106922;1274;22541;-81
2023/06/06 08:31:03;;;;;;;12.20;5.80;;;;;;;;;;107233;1251;24240;-80
2023/06/06 08:33:30;;;;;;;9.30;5.50;;;;;;;;;;107202;1274;22518;-84
2023/06/06 08:35:57;;;;;;;9.60;5.40;;;;;;;;;;107147;1274;22964;-83
2023/06/06 08:38:24;;;;;;;10.90;5.90;;;;;;;;;;107138;1274;22534;-79
2023/06/06 08:40:52;;;;;;;10.30;5.40;;;;;;;;;;107165;1250;22630;-80
2023/06/06 08:43:30;;;;;;;9.00;6.10;;;;;;;;;;107038;1270;22532;-83
2023/06/06 08:46:02;;;;;;;12.30;5.80;;;;;;;;;;107137;1274;25470;-83
2023/06/06 08:48:50;;;;;;;11.00;6.10;;;;;;;;;;106961;1274;25325;-81
2023/06/06 08:51:31;;;;;;;9.70;6.50;;;;;;;;;;107154;1257;22520;-83
2023/06/06 08:54:21;;;;;;;10.00;6.10;;;;;;;;;;107097;1274;26481;-79
2023/06/06 08:56:58;;;;;;;10.70;5.60;;;;;;;;;;107344;1273;22529;-78
2023/06/06 08:59:46;;;;;;;10.30;5.70;;;;;;;;;;107260;1273;22530;-81
2023/06/06 09:02:13;;;;;;;10.70;5.70;;;;;;;;;;107165;1256;25425;-81
2023/06/06 09:04:42;;;;;;;10.00;5.50;;;;;;;;;;107148;1273;24194;-84
2023/06/06 09:07:11;;;;;;;10.40;5.50;;;;;;;;;;107225;1273;24293;-83
2023/06/06 09:09:48;;;;;;;11.70;6.00;;;;;;;;;;107296;1273;22516;-81
2023/06/06 09:12:28;;;;;;;;;;;;;;;;;;;;;
2023/06/06 09:15:16;;;;;;;10.60;5.80;;;;;;;;;;107231;1273;25322;-79
2023/06/06 09:17:46;;;;;;;9.70;6.10;;;;;;;;;;107232;1273;25220;-81
2023/06/06 09:20:14;;;;;;;10.00;5.70;;;;;;;;;;107169;1273;22513;-81
2023/06/06 09:22:44;;;;;;;8.60;5.30;;;;;;;;;;107206;1253;22534;-86
2023/06/06 09:25:20;;;;;;;10.50;5.80;;;;;;;;;;107276;1266;22992;-84
2023/06/06 09:27:52;;;;;;;10.60;6.10;;;;;;;;;;107164;1273;22473;-86
2023/06/06 09:30:23;;;;;;;13.30;6.50;;;;;;;;;;107016;1273;25207;-80
2023/06/06 09:33:01;;;;;;;11.70;6.70;;;;;;;;;;107104;1257;22538;-85
2023/06/06 09:35:31;;;;;;;10.90;6.30;;;;;;;;;;107175;1273;24180;-83
2023/06/06 09:38:08;;;;;;;10.40;6.30;;;;;;;;;;107194;1273;22520;-81
2023/06/06 09:40:45;;;;;;;11.20;6.80;;;;;;;;;;107131;1273;23904;-78
2023/06/06 09:43:13;;;;;;;11.50;6.60;;;;;;;;;;107041;1268;25369;-83
2023/06/06 09:45:54;;;;;;;11.10;6.00;;;;;;;;;;107141;1274;24202;-82
2023/06/06 09:48:22;;;;;;;11.90;6.40;;;;;;;;;;107141;1274;25353;-82
2023/06/06 09:50:55;;;;;;;10.70;6.40;;;;;;;;;;107149;1274;24030;-84
2023/06/06 09:53:25;;;;;;;11.40;6.00;;;;;;;;;;107136;1258;23391;-79
2023/06/06 09:55:54;;;;;;;12.70;6.30;;;;;;;;;;107098;1273;22522;-84
2023/06/06 09:58:21;;;;;;;11.80;6.80;;;;;;;;;;107220;1273;23912;-80
2023/06/06 10:00:50;;;;;;;12.20;6.40;;;;;;;;;;107144;1273;25326;-83
2023/06/06 10:03:20;;;;;;;11.40;6.80;;;;;;;;;;107109;1273;24225;-78
2023/06/06 10:05:48;;;;;;;10.90;6.40;;;;;;;;;;107139;1273;25381;-82
2023/06/06 10:08:19;;;;;;;12.50;6.20;;;;;;;;;;107117;1273;22514;-79
2023/06/06 10:10:46;;;;;;;10.30;5.80;;;;;;;;;;107252;1266;22514;-80
2023/06/06 10:13:15;;;;;;;12.10;6.50;;;;;;;;;;106945;1256;22521;-79
2023/06/06 10:15:44;;;;;;;13.90;7.20;;;;;;;;;;107209;1274;22528;-81
2023/06/06 10:18:12;;;;;;;13.40;6.80;;;;;;;;;;107210;1274;22486;-81
2023/06/06 10:20:39;;;;;;;14.40;6.90;;;;;;;;;;107216;1274;25265;-83
2023/06/06 10:23:07;;;;;;;12.00;7.30;;;;;;;;;;107258;1250;22548;-81
2023/06/06 10:25:35;;;;;;;13.60;7.70;;;;;;;;;;107208;1273;25575;-80
2023/06/06 10:28:09;;;;;;;12.90;6.70;;;;;;;;;;107260;1273;25284;-86
2023/06/06 10:30:41;;;;;;;15.10;6.80;;;;;;;;;;107034;1273;25327;-79
2023/06/06 10:33:28;;;;;;;12.80;6.60;;;;;;;;;;107149;1263;24311;-85
2023/06/06 10:35:57;;;;;;;11.90;6.80;;;;;;;;;;107097;1274;24247;-86
2023/06/06 10:38:24;;;;;;;16.20;8.10;;;;;;;;;;107098;1274;22548;-79
2023/06/06 10:40:52;;;;;;;14.50;7.80;;;;;;;;;;107080;1274;25327;-79
2023/06/06 10:43:20;;;;;;;12.90;7.80;;;;;;;;;;106956;1250;25136;-79
2023/06/06 10:45:58;;;;;;;11.70;8.00;;;;;;;;;;107079;1269;24285;-83
2023/06/06 10:48:55;;;;;;;;;;;;;;;;;;;;;
2023/06/06 10:51:36;;;;;;;14.90;8.60;;;;;;;;;;107054;1266;24250;-81
2023/06/06 10:54:26;;;;;;;;;;;;;;;;;;;;;
2023/06/06 10:57:17;;;;;;;17.30;7.30;;;;;;;;;;103708;1295;546425;-82
2023/06/06 10:59:49;;;;;;;13.80;6.50;;;;;;;;;;105841;1290;25394;-82
2023/06/06 11:02:37;;;;;;;13.80;6.60;;;;;;;;;;106086;1289;22526;-82
2023/06/06 11:05:04;;;;;;;14.00;7.60;;;;;;;;;;105985;1287;23919;-85
2023/06/06 11:07:34;;;;;;;14.10;8.20;;;;;;;;;;106003;1267;22536;-86
2023/06/06 11:10:01;;;;;;;11.90;7.20;;;;;;;;;;103722;1288;3084914;-88
2023/06/06 11:12:29;;;;;;;14.90;7.60;;;;;;;;;;106121;1288;25468;-82
2023/06/06 11:14:56;;;;;;;20.80;9.00;;;;;;;;;;106195;1288;25420;-80
2023/06/06 11:17:40;;;;;;;16.30;8.00;;;;;;;;;;105997;1270;22536;-81
2023/06/06 11:20:15;;;;;;;12.80;8.20;;;;;;;;;;106056;1287;22489;-83
2023/06/06 11:22:49;;;;;;;14.00;7.40;;;;;;;;;;106554;1287;24280;-83
2023/06/06 11:25:20;;;;;;;14.60;8.20;;;;;;;;;;106115;1287;24305;-82
2023/06/06 11:27:50;;;;;;;12.70;8.00;;;;;;;;;;106955;1260;22652;-83
2023/06/06 11:30:19;;;;;;;14.90;7.90;;;;;;;;;;106988;1277;25590;-87
2023/06/06 11:32:49;;;;;;;11.50;8.00;;;;;;;;;;107120;1277;22970;-81
2023/06/06 11:35:20;;;;;;;12.90;8.20;;;;;;;;;;107304;1277;25275;-81
2023/06/06 11:37:47;;;;;;;13.90;8.40;;;;;;;;;;107398;1267;22536;-81
2023/06/06 11:40:15;;;;;;;14.20;8.10;;;;;;;;;;107105;1276;22529;-83
2023/06/06 11:42:48;;;;;;;13.40;8.60;;;;;;;;;;107024;1276;22487;-84
2023/06/06 11:45:18;;;;;;;13.30;8.40;;;;;;;;;;107106;1272;23871;-85
2023/06/06 11:47:48;;;;;;;13.70;7.80;;;;;;;;;;106923;1258;23632;-87
2023/06/06 11:50:26;;;;;;;12.90;7.80;;;;;;;;;;106839;1277;22609;-89
2023/06/06 11:52:58;;;;;;;13.80;7.90;;;;;;;;;;106888;1278;23293;-86
2023/06/06 11:55:39;;;;;;;11.80;7.90;;;;;;;;;;106862;1278;24202;-81
2023/06/06 11:58:29;;;;;;;13.50;8.00;;;;;;;;;;106874;1276;25402;-82
2023/06/06 12:01:07;;;;;;;12.00;7.70;;;;;;;;;;106959;1276;22751;-84
2023/06/06 12:03:35;;;;;;;11.60;7.20;;;;;;;;;;106937;1276;22635;-89
2023/06/06 12:06:05;;;;;;;12.50;7.50;;;;;;;;;;106929;1276;22555;-90
2023/06/06 12:08:36;;;;;;;13.70;7.40;;;;;;;;;;106798;1261;22525;-86
2023/06/06 12:11:21;;;;;;;13.20;7.90;;;;;;;;;;106747;1278;23270;-86
2023/06/06 12:13:51;;;;;;;12.70;6.70;;;;;;;;;;106919;1278;22526;-85
2023/06/06 12:16:26;;;;;;;13.90;6.70;;;;;;;;;;106802;1278;22526;-84
2023/06/06 12:18:59;;;;;;;14.40;7.80;;;;;;;;;;106884;1259;22553;-82
2023/06/06 12:21:54;;;;;;;10.80;6.80;;;;;;;;;;106903;1277;22751;-86
2023/06/06 12:24:24;;;;;;;11.70;7.40;;;;;;;;;;106886;1276;22530;-88
2023/06/06 12:27:02;;;;;;;11.60;7.60;;;;;;;;;;107043;1277;22540;-86
2023/06/06 12:29:53;;;;;;;14.30;7.80;;;;;;;;;;106882;1273;22522;-87
2023/06/06 12:32:41;;;;;;;;;;;;;;;;;;;;;
2023/06/06 12:35:19;;;;;;;12.40;7.70;;;;;;;;;;106755;1278;22521;-87
2023/06/06 12:37:48;;;;;;;14.20;7.90;;;;;;;;;;106882;1277;24314;-83
2023/06/06 12:40:15;;;;;;;11.90;7.20;;;;;;;;;;106918;1255;22748;-85
2023/06/06 12:42:49;;;;;;;13.20;7.80;;;;;;;;;;106886;1277;23870;-87
2023/06/06 12:45:16;;;;;;;13.90;7.90;;;;;;;;;;106886;1277;26688;-87
2023/06/06 12:47:45;;;;;;;13.40;7.60;;;;;;;;;;106888;1277;22524;-89
2023/06/06 12:50:12;;;;;;;15.20;8.00;;;;;;;;;;106858;1278;22528;-90
2023/06/06 12:52:41;;;;;;;15.10;7.80;;;;;;;;;;106929;1278;24324;-88
2023/06/06 12:55:19;;;;;;;15.80;8.10;;;;;;;;;;106893;1278;22519;-85
2023/06/06 12:57:47;;;;;;;13.10;7.80;;;;;;;;;;106927;1254;24186;-82
2023/06/06 13:00:20;;;;;;;13.00;7.30;;;;;;;;;;106903;1259;25403;-84
2023/06/06 13:02:50;;;;;;;11.70;7.00;;;;;;;;;;106846;1274;22478;-85
2023/06/06 13:05:17;;;;;;;11.80;6.60;;;;;;;;;;106921;1270;22527;-83
2023/06/06 13:07:44;;;;;;;11.70;6.80;;;;;;;;;;106867;1277;22744;-88
2023/06/06 13:10:22;;;;;;;;;;;;;;;;;;;;;
2023/06/06 13:12:57;;;;;;;12.00;7.10;;;;;;;;;;106836;1278;22523;-86
2023/06/06 13:15:27;;;;;;;11.70;7.30;;;;;;;;;;106913;1278;22545;-82
2023/06/06 13:17:56;;;;;;;12.30;7.00;;;;;;;;;;106863;1278;23003;-89
2023/06/06 13:20:33;;;;;;;12.20;7.10;;;;;;;;;;106903;1270;23884;-87
2023/06/06 13:23:06;;;;;;;12.10;7.30;;;;;;;;;;106888;1277;22514;-90
2023/06/06 13:25:35;;;;;;;12.80;7.40;;;;;;;;;;106899;1277;25038;-85
2023/06/06 13:28:05;;;;;;;11.60;6.50;;;;;;;;;;106922;1277;22738;-84
2023/06/06 13:30:56;;;;;;;12.90;6.10;;;;;;;;;;106818;1261;24327;-86
2023/06/06 13:33:33;;;;;;;;;;;;;;;;;;;;;
2023/06/06 13:36:00;;;;;;;13.10;6.90;;;;;;;;;;106887;1278;24884;-83
2023/06/06 13:38:26;;;;;;;9.90;6.50;;;;;;;;;;106872;1278;25427;-83
2023/06/06 13:41:03;;;;;;;;;;;;;;;;;;;;;
2023/06/06 13:43:30;;;;;;;13.60;6.70;;;;;;;;;;106889;1277;24271;-86
2023/06/06 13:46:00;;;;;;;11.90;6.80;;;;;;;;;;106932;1277;23756;-85
2023/06/06 13:48:27;;;;;;;12.20;7.20;;;;;;;;;;106906;1277;25271;-81
2023/06/06 13:50:54;;;;;;;12.10;7.00;;;;;;;;;;106886;1262;22534;-84
2023/06/06 13:53:32;;;;;;;11.50;6.90;;;;;;;;;;106938;1254;22484;-86
2023/06/06 13:56:00;;;;;;;10.50;6.20;;;;;;;;;;106866;1278;22656;-84
2023/06/06 13:58:39;;;;;;;11.60;6.70;;;;;;;;;;106835;1278;24263;-83
2023/06/06 14:01:07;;;;;;;13.70;6.80;;;;;;;;;;106926;1257;22516;-85
2023/06/06 14:03:37;;;;;;;11.00;6.00;;;;;;;;;;106925;1277;22504;-81
2023/06/06 14:06:06;;;;;;;10.40;6.10;;;;;;;;;;106940;1277;22524;-92
2023/06/06 14:08:45;;;;;;;13.00;6.60;;;;;;;;;;106896;1277;23901;-85
2023/06/06 14:11:23;;;;;;;12.80;7.00;;;;;;;;;;106840;1261;24240;-85
2023/06/06 14:13:49;;;;;;;12.10;7.00;;;;;;;;;;106884;1278;24266;-81
2023/06/06 14:16:39;;;;;;;13.60;7.30;;;;;;;;;;106832;1278;24328;-86
2023/06/06 14:19:35;;;;;;;11.40;6.90;;;;;;;;;;106929;1277;22483;-88
2023/06/06 14:23:00;;;;;;;13.10;6.80;;;;;;;;;;106874;1258;25313;-85
2023/06/06 14:25:07;;;;;;;12.50;7.30;;;;;;;;;;106856;1277;24375;-88
2023/06/06 14:27:37;;;;;;;11.20;7.00;;;;;;;;;;106918;1277;23397;-87
2023/06/06 14:30:05;;;;;;;10.30;7.10;;;;;;;;;;106901;1277;22535;-82
2023/06/06 14:32:34;;;;;;;13.90;7.20;;;;;;;;;;106909;1278;22553;-82
2023/06/06 14:35:02;;;;;;;12.90;7.40;;;;;;;;;;106843;1278;22551;-84
2023/06/06 14:37:29;;;;;;;12.50;7.00;;;;;;;;;;106834;1278;22579;-82
2023/06/06 14:39:56;;;;;;;11.50;6.80;;;;;;;;;;106694;1278;22531;-86
2023/06/06 14:42:49;;;;;;;13.80;7.00;;;;;;;;;;106966;1277;22523;-83
2023/06/06 14:45:23;;;;;;;13.00;7.10;;;;;;;;;;106939;1277;22483;-90
2023/06/06 14:47:50;;;;;;;14.40;7.70;;;;;;;;;;106894;1277;22549;-83
2023/06/06 14:50:16;;;;;;;12.10;6.70;;;;;;;;;;106857;1277;22535;-88
2023/06/06 14:52:54;;;;;;;13.60;6.40;;;;;;;;;;106869;1262;22522;-88
2023/06/06 14:55:44;;;;;;;12.70;6.40;;;;;;;;;;106922;1278;25406;-85